Millersville, MD (21108)

12:40 PM EDT on August 04, 2015 (GMT -0400)
MID-ATLANTIC TOWER | | Change Station
CLOSE
Current Station
Personal Weather Station
Location: Millersville, MD
Elevation: 125 ft
Nearby Weather Stations

Elev 125 ft 39.10 °N, 76.62 °W | Updated 4 seconds ago

Clear
Clear
87.7 °F
Feels Like 90 °F
N
7.0
Wind Variable Wind from West
Gusts 7.0 mph

Today
High -- | Low -- °F
--% Chance of Precip.
Yesterday
High -- | Low -- °F
Precip. -- in
6:09 AM 8:15 PM
Waning Gibbous, 76% visible
Pressure 29.92 in
Visibility 10.0 miles
Clouds Few 4000 ft
Heat Index 90 °F
Dew Point 66 °F
Humidity 48%
Rainfall 0.00 in
Snow Depth Not available.
UV 0.0 out of 12
Pollen 7.10 out of 12
Air Quality Not available.
Flu Activity Not available.
METAR KBWI 041554Z 28008KT 10SM FEW040 30/20 A2992 RMK AO2 SLP130 T03000200

More Conditions Fewer Conditions

Pressure 29.92 in
Visibility 10.0 miles
Clouds Few 4000 ft
Heat Index 90 °F
Dew Point 66 °F
Humidity 48%
Rainfall 0.00 in
Snow Depth Not available.
UV 0.0 out of 12
Pollen 7.10 out of 12
Air Quality Not available.
Flu Activity Not available.
METAR KBWI 041554Z 28008KT 10SM FEW040 30/20 A2992 RMK AO2 SLP130 T03000200

More Conditions Fewer Conditions

10-Day Weather Forecast

×

Almanac

Astronomy

Aug. 04, 2015 Rise Set
Actual Time
Civil Twilight
Nautical Twilight
Astronomical Twilight
Moon
Length of Visible Light
Length of Day
Tomorrow will be .
, % of the Moon is Illuminated

Today's Extremes

State Highs State Lows

Community

WunderPhotos

Upload Photos

1,843,920 photos uploaded!

WunderBlogs® & News

Nearby

Air Quality

  Air Quality AQ Index Pollutant
Not available.

Snow Depth

Station Depth Elevation

Earthquake Activity

City Distance Mag. Time & Date
Minimum magnitude displayed is 2.5.

Coastal Water Temperatures

Place Temperature

Stations

Nearby Weather Stations

Station Location Temp. Windchill Dew Point Humidity Wind Precip. Elev Updated Type